Time;durP1;ratioP1;P1;durP2;ratioP2;P2;SDS_P1;SDS_P2;PMS_P1;PMS_P2;Temp;Humidity;BMP_temperature;BMP_pressure;BME280_temperature;BME280_humidity;BME280_pressure;Samples;Min_cycle;Max_cycle;Signal;HPM_P1;HPM_P2
2021/05/09 00:01:03;;;;;;;2.62;1.95;;;;;;;5.88;81.36;99953.13;1824256;78;21117;-78
2021/05/09 00:03:31;;;;;;;2.83;2.60;;;;;;;5.87;81.40;99952.30;1818637;78;21536;-76
2021/05/09 00:06:00;;;;;;;2.67;2.25;;;;;;;5.85;81.41;99952.98;1793518;78;21629;-77
2021/05/09 00:08:27;;;;;;;4.53;2.72;;;;;;;5.83;81.52;99956.40;1824392;78;22583;-77
2021/05/09 00:10:55;;;;;;;3.98;2.58;;;;;;;5.83;81.54;99949.72;1824182;78;21113;-78
2021/05/09 00:13:23;;;;;;;4.45;2.15;;;;;;;5.85;81.54;99956.98;1824370;78;21165;-77
2021/05/09 00:15:52;;;;;;;4.25;2.27;;;;;;;5.86;81.50;99959.96;1824266;78;21121;-78
2021/05/09 00:18:19;;;;;;;3.00;2.35;;;;;;;5.87;81.46;99959.48;1824409;78;21293;-77
2021/05/09 00:20:47;;;;;;;4.28;2.75;;;;;;;5.84;81.41;99950.55;1794212;78;21380;-77
2021/05/09 00:23:15;;;;;;;2.67;2.15;;;;;;;5.81;81.41;99955.78;1824178;78;21160;-76
2021/05/09 00:25:43;;;;;;;3.02;2.25;;;;;;;5.79;81.47;99965.86;1824304;78;21623;-77
2021/05/09 00:28:11;;;;;;;3.17;2.17;;;;;;;5.78;81.60;99962.88;1824160;78;21149;-77
2021/05/09 00:30:41;;;;;;;2.60;2.40;;;;;;;5.78;81.65;99962.06;1824239;78;21176;-78
2021/05/09 00:33:13;;;;;;;3.45;3.15;;;;;;;5.78;81.55;99955.39;1824212;78;21363;-78
2021/05/09 00:35:42;;;;;;;3.52;2.72;;;;;;;5.75;81.56;99961.98;1824253;78;21125;-79
2021/05/09 00:38:10;;;;;;;4.33;1.92;;;;;;;5.69;81.59;99961.48;1794259;78;21161;-79
2021/05/09 00:40:38;;;;;;;3.12;2.35;;;;;;;5.65;81.66;99967.77;1824283;78;21023;-80
2021/05/09 00:43:05;;;;;;;3.12;2.25;;;;;;;5.66;81.73;99961.89;1794140;78;21161;-79
2021/05/09 00:45:33;;;;;;;3.90;2.17;;;;;;;5.64;81.75;99966.12;1794364;78;22167;-79
2021/05/09 00:48:01;;;;;;;2.83;2.22;;;;;;;5.64;81.79;99971.97;1824339;78;21122;-81
2021/05/09 00:50:29;;;;;;;5.97;2.58;;;;;;;5.63;81.75;99971.15;1742930;78;21019;-79
2021/05/09 00:52:58;;;;;;;3.08;2.00;;;;;;;5.59;81.76;99973.12;1824202;78;21207;-79
2021/05/09 00:55:25;;;;;;;2.83;2.10;;;;;;;5.55;81.84;99971.91;1824237;78;21138;-78
2021/05/09 00:57:53;;;;;;;2.60;2.15;;;;;;;5.53;81.92;99974.77;1824347;78;22213;-79
2021/05/09 01:00:22;;;;;;;2.98;2.30;;;;;;;5.53;81.82;99976.62;1742714;78;21594;-77
2021/05/09 01:02:50;;;;;;;2.35;2.15;;;;;;;5.53;81.82;99976.62;1824233;78;21157;-76
2021/05/09 01:05:19;;;;;;;3.20;2.25;;;;;;;5.52;81.86;99977.64;1824142;78;21153;-77
2021/05/09 01:07:48;;;;;;;2.50;2.30;;;;;;;5.45;81.84;99976.86;1824227;78;21086;-78
2021/05/09 01:10:16;;;;;;;2.10;1.90;;;;;;;5.45;81.84;99976.86;1824244;78;21252;-78
2021/05/09 01:12:45;;;;;;;2.42;2.10;;;;;;;5.46;81.95;99983.84;1824226;78;21109;-78
2021/05/09 01:15:14;;;;;;;3.08;2.58;;;;;;;5.45;81.84;99991.02;1794995;78;20996;-79
2021/05/09 01:17:42;;;;;;;2.83;2.10;;;;;;;5.45;81.84;99991.02;1795037;78;21145;-78
2021/05/09 01:20:16;;;;;;;3.52;2.62;;;;;;;5.46;81.79;99981.17;1794267;78;21105;-77
2021/05/09 01:22:44;;;;;;;4.00;2.85;;;;;;;5.45;81.55;99996.86;1824310;78;21183;-77
2021/05/09 01:25:12;;;;;;;2.10;1.90;;;;;;;5.42;81.72;99995.95;1824349;78;21558;-78
2021/05/09 01:27:41;;;;;;;2.45;2.02;;;;;;;5.42;81.72;99995.95;1824309;78;21038;-77
2021/05/09 01:30:12;;;;;;;2.85;2.45;;;;;;;5.40;81.83;100005.49;1824420;78;21169;-78
2021/05/09 01:32:41;;;;;;;3.17;2.87;;;;;;;5.40;81.83;100005.49;1824489;78;21158;-78
2021/05/09 01:35:10;;;;;;;2.80;2.50;;;;;;;5.40;82.11;100004.16;1794347;78;21382;-78
2021/05/09 01:37:39;;;;;;;3.12;2.27;;;;;;;5.32;82.01;100012.90;1824325;78;21617;-78
2021/05/09 01:40:08;;;;;;;2.25;2.12;;;;;;;5.32;82.01;100012.90;1824389;78;21126;-80
2021/05/09 01:42:37;;;;;;;4.15;2.37;;;;;;;5.29;81.97;100014.12;1824299;78;21118;-78
2021/05/09 01:45:07;;;;;;;3.37;2.40;;;;;;;5.26;81.91;100016.70;1794539;78;21165;-79
2021/05/09 01:47:36;;;;;;;2.77;2.20;;;;;;;5.23;81.78;100023.76;1824334;78;22406;-79
2021/05/09 01:50:11;;;;;;;2.27;2.08;;;;;;;5.22;81.65;100027.48;1824341;78;21733;-78
2021/05/09 01:52:39;;;;;;;1.92;1.80;;;;;;;5.20;81.43;100028.19;1824357;78;21168;-79
2021/05/09 01:55:11;;;;;;;2.08;1.82;;;;;;;5.16;81.26;100027.47;1794446;78;21141;-79
2021/05/09 01:57:39;;;;;;;2.95;2.75;;;;;;;5.11;81.14;100032.60;1794329;78;21149;-78
2021/05/09 02:00:18;;;;;;;4.80;2.80;;;;;;;5.12;81.06;100040.91;1795153;78;21630;-78
2021/05/09 02:02:46;;;;;;;2.27;2.08;;;;;;;5.11;81.02;100040.09;1824309;78;21141;-79
2021/05/09 02:05:17;;;;;;;3.22;2.92;;;;;;;5.10;80.97;100042.95;1794444;78;21118;-78
2021/05/09 02:07:44;;;;;;;3.00;2.65;;;;;;;5.04;80.99;100043.77;1794310;78;21165;-79
2021/05/09 02:10:13;;;;;;;2.30;2.10;;;;;;;4.98;81.20;100044.61;1794385;78;21125;-79
2021/05/09 02:12:41;;;;;;;3.10;2.27;;;;;;;4.94;81.39;100056.70;1794450;78;21737;-77
2021/05/09 02:15:17;;;;;;;2.95;2.58;;;;;;;4.92;81.59;100049.41;1822271;78;21137;-76
2021/05/09 02:17:44;;;;;;;2.77;2.58;;;;;;;4.89;81.74;100063.16;1794203;78;21149;-78
2021/05/09 02:20:15;;;;;;;3.10;2.55;;;;;;;4.87;81.83;100066.02;1823818;77;21156;-78
2021/05/09 02:22:44;;;;;;;2.25;2.12;;;;;;;4.84;81.95;100062.44;1823966;78;21140;-78
2021/05/09 02:25:13;;;;;;;2.30;2.10;;;;;;;4.82;82.06;100071.13;1794470;78;21989;-77
2021/05/09 02:27:41;;;;;;;2.75;2.42;;;;;;;4.81;82.20;100071.64;1794898;78;21141;-78
2021/05/09 02:30:10;;;;;;;3.85;2.58;;;;;;;4.80;82.30;100076.66;1824345;78;21146;-78
2021/05/09 02:32:39;;;;;;;2.58;2.37;;;;;;;4.80;82.30;100079.32;1794348;78;21182;-78
2021/05/09 02:35:08;;;;;;;2.65;2.45;;;;;;;4.78;82.28;100081.38;1794485;78;21098;-78
2021/05/09 02:37:36;;;;;;;2.50;2.30;;;;;;;4.77;82.27;100085.58;1824275;78;21193;-78
2021/05/09 02:40:07;;;;;;;3.50;2.40;;;;;;;4.78;82.26;100087.22;1824260;78;21563;-79
2021/05/09 02:42:36;;;;;;;4.90;2.47;;;;;;;4.78;82.28;100089.38;1824316;78;21185;-78
2021/05/09 02:45:06;;;;;;;2.35;2.15;;;;;;;4.80;82.25;100086.49;1824306;78;21126;-76
2021/05/09 02:47:34;;;;;;;3.08;2.85;;;;;;;4.82;82.17;100089.78;1824398;78;21165;-77
2021/05/09 02:50:10;;;;;;;2.62;2.42;;;;;;;4.82;82.09;100096.45;1794323;78;22153;-77
2021/05/09 02:52:40;;;;;;;2.55;1.95;;;;;;;4.81;82.03;100098.80;1794254;78;21967;-77
2021/05/09 02:55:11;;;;;;;2.30;2.10;;;;;;;4.79;82.04;100105.69;1824351;78;20959;-78
2021/05/09 02:57:40;;;;;;;3.83;2.45;;;;;;;4.78;82.12;100119.20;1824292;78;21585;-77
2021/05/09 03:00:10;;;;;;;2.62;2.40;;;;;;;4.77;82.14;100115.70;1824451;78;21174;-77
2021/05/09 03:02:41;;;;;;;2.87;1.98;;;;;;;4.79;82.15;100131.00;1794357;78;21656;-77
2021/05/09 03:05:11;;;;;;;4.50;2.70;;;;;;;4.79;82.10;100124.34;1819993;78;21189;-77
2021/05/09 03:07:40;;;;;;;5.08;2.52;;;;;;;4.78;82.09;100137.84;1807199;79;21158;-76
2021/05/09 03:10:10;;;;;;;2.62;2.30;;;;;;;4.80;82.08;100142.45;1807058;79;21564;-77
2021/05/09 03:12:38;;;;;;;2.37;2.17;;;;;;;4.78;82.08;100142.67;1807178;78;21235;-75
2021/05/09 03:15:09;;;;;;;5.60;2.83;;;;;;;4.80;82.10;100151.27;1807089;79;21208;-78
2021/05/09 03:17:37;;;;;;;1.92;1.75;;;;;;;4.84;82.05;100153.83;1775342;79;21122;-78
2021/05/09 03:20:11;;;;;;;3.77;2.80;;;;;;;4.86;81.87;100165.63;1807162;79;21509;-77
2021/05/09 03:22:39;;;;;;;2.87;2.37;;;;;;;4.86;81.74;100172.30;1807144;79;21611;-78
2021/05/09 03:25:08;;;;;;;2.60;2.40;;;;;;;4.87;81.74;100177.12;1807100;79;21130;-78
2021/05/09 03:27:36;;;;;;;4.70;2.95;;;;;;;4.88;81.67;100172.11;1807060;79;21197;-78
2021/05/09 03:30:05;;;;;;;4.60;3.22;;;;;;;4.90;81.60;100176.70;1807014;79;21118;-78
2021/05/09 03:32:33;;;;;;;5.37;3.00;;;;;;;4.93;81.48;100177.66;1775441;79;21138;-77
2021/05/09 03:35:07;;;;;;;4.28;2.75;;;;;;;4.96;81.36;100179.41;1807970;79;21126;-78
2021/05/09 03:37:33;;;;;;;3.17;2.80;;;;;;;4.97;81.26;100183.72;1777476;79;21145;-78
2021/05/09 03:40:01;;;;;;;5.20;3.10;;;;;;;4.98;81.21;100188.03;1777522;79;21168;-77
2021/05/09 03:42:31;;;;;;;6.33;2.70;;;;;;;5.02;81.22;100189.77;1808168;78;21090;-78
2021/05/09 03:45:01;;;;;;;5.42;2.83;;;;;;;5.08;81.10;100199.13;1807556;79;21015;-76
2021/05/09 03:47:29;;;;;;;3.00;2.80;;;;;;;5.14;80.96;100202.30;1807004;79;21170;-79
2021/05/09 03:49:59;;;;;;;5.60;3.87;;;;;;;5.19;80.78;100201.69;1807130;79;21596;-77
2021/05/09 03:52:27;;;;;;;3.30;2.98;;;;;;;5.22;80.61;100198.64;1775387;79;21186;-79
2021/05/09 03:54:57;;;;;;;2.92;2.50;;;;;;;5.25;80.50;100210.23;1807035;79;21043;-77
2021/05/09 03:57:25;;;;;;;6.75;2.55;;;;;;;5.27;80.35;100205.52;1775496;79;21012;-78
2021/05/09 03:59:53;;;;;;;2.65;2.45;;;;;;;5.30;80.40;100203.77;1807081;79;21608;-78
2021/05/09 04:02:21;;;;;;;2.77;2.58;;;;;;;5.37;80.36;100206.46;1763906;80;21185;-78
2021/05/09 04:04:51;;;;;;;2.77;2.25;;;;;;;5.45;80.25;100210.26;1738540;81;21196;-77
2021/05/09 04:07:19;;;;;;;4.20;2.80;;;;;;;5.52;80.04;100207.06;1753678;81;21150;-80
2021/05/09 04:09:49;;;;;;;3.47;3.17;;;;;;;5.57;79.77;100213.95;1753513;81;21145;-77
2021/05/09 04:12:16;;;;;;;2.77;2.33;;;;;;;5.62;79.54;100215.49;1729906;81;21159;-77
2021/05/09 04:14:44;;;;;;;2.75;2.55;;;;;;;5.64;79.30;100219.61;1729889;81;21208;-77
2021/05/09 04:17:14;;;;;;;2.22;1.72;;;;;;;5.67;79.07;100211.70;1753572;81;21421;-78
2021/05/09 04:19:43;;;;;;;2.80;2.17;;;;;;;5.73;78.99;100219.40;1753435;81;21133;-77
2021/05/09 04:22:11;;;;;;;2.40;2.20;;;;;;;5.77;78.75;100217.95;1753581;81;21175;-77
2021/05/09 04:24:39;;;;;;;3.25;2.92;;;;;;;5.82;78.48;100226.17;1729799;81;21154;-77
2021/05/09 04:27:07;;;;;;;4.53;2.70;;;;;;;5.87;78.48;100235.24;1753532;81;21146;-79
2021/05/09 04:29:36;;;;;;;4.97;2.55;;;;;;;5.93;78.45;100237.60;1753503;81;22254;-78
2021/05/09 04:32:06;;;;;;;2.70;2.50;;;;;;;6.02;77.92;100245.20;1753501;81;21164;-80
2021/05/09 04:34:34;;;;;;;2.65;2.45;;;;;;;6.05;77.82;100243.44;1753547;81;21149;-79
2021/05/09 04:37:04;;;;;;;5.62;2.65;;;;;;;6.12;77.72;100245.60;1753511;81;21022;-79
2021/05/09 04:39:32;;;;;;;2.60;2.40;;;;;;;6.12;77.72;100245.60;1753518;81;21161;-78
2021/05/09 04:42:01;;;;;;;4.33;3.22;;;;;;;6.20;77.61;100257.08;1753535;81;22260;-78
2021/05/09 04:44:28;;;;;;;3.15;2.35;;;;;;;6.25;77.26;100260.78;1753381;81;20986;-81
2021/05/09 04:46:56;;;;;;;3.47;2.65;;;;;;;6.32;77.33;100263.45;1753494;81;21193;-76
2021/05/09 04:49:24;;;;;;;2.62;2.42;;;;;;;6.38;77.12;100265.30;1729844;81;21157;-77
2021/05/09 04:51:52;;;;;;;6.50;2.45;;;;;;;6.42;76.99;100263.84;1753498;81;21125;-78
2021/05/09 04:54:20;;;;;;;2.27;2.08;;;;;;;6.48;76.92;100269.16;1753523;81;21955;-78
2021/05/09 04:56:49;;;;;;;2.00;1.87;;;;;;;6.56;76.93;100276.97;1753441;81;21108;-78
2021/05/09 04:59:17;;;;;;;3.87;2.83;;;;;;;6.65;76.32;100275.40;1729948;81;21063;-79
2021/05/09 05:01:45;;;;;;;2.72;2.52;;;;;;;6.74;76.38;100285.65;1753479;81;21126;-76
2021/05/09 05:04:14;;;;;;;3.17;2.75;;;;;;;6.82;75.97;100281.40;1729756;81;21165;-78
2021/05/09 05:06:42;;;;;;;2.47;2.27;;;;;;;6.90;75.82;100285.20;1735245;81;21212;-79
2021/05/09 05:09:11;;;;;;;2.40;2.20;;;;;;;6.96;75.09;100297.70;1714620;81;21232;-78
2021/05/09 05:11:42;;;;;;;2.90;2.10;;;;;;;7.00;74.09;100300.25;1738506;81;21224;-79
2021/05/09 05:14:14;;;;;;;2.02;1.92;;;;;;;7.03;72.28;100308.90;1767009;81;21149;-79
2021/05/09 05:16:42;;;;;;;2.45;2.15;;;;;;;7.06;72.12;100296.43;1766989;81;21196;-80
2021/05/09 05:19:10;;;;;;;2.77;2.33;;;;;;;7.10;72.08;100286.42;1738526;81;21598;-73
2021/05/09 05:21:37;;;;;;;2.30;2.12;;;;;;;7.17;72.31;100299.27;1766954;81;21207;-75
2021/05/09 05:24:08;;;;;;;5.00;2.60;;;;;;;7.23;71.87;100294.93;1766921;81;21246;-76
2021/05/09 05:26:35;;;;;;;2.62;2.42;;;;;;;7.28;71.78;100293.78;1766994;81;21634;-75
2021/05/09 05:29:03;;;;;;;2.95;2.42;;;;;;;7.32;71.27;100300.34;1766929;81;21223;-76
2021/05/09 05:31:32;;;;;;;2.17;1.98;;;;;;;7.36;71.05;100298.87;1766969;81;22398;-76
2021/05/09 05:34:02;;;;;;;2.22;1.87;;;;;;;7.40;71.34;100304.09;1766806;81;21022;-74
2021/05/09 05:36:31;;;;;;;2.52;2.33;;;;;;;7.46;71.35;100311.27;1767030;81;21608;-75
2021/05/09 05:38:59;;;;;;;4.97;2.77;;;;;;;7.51;71.00;100319.48;1766853;81;21160;-76
2021/05/09 05:41:27;;;;;;;1.98;1.85;;;;;;;7.55;70.11;100314.00;1766993;81;21168;-74
2021/05/09 05:43:55;;;;;;;2.72;2.47;;;;;;;7.61;68.63;100313.66;1738484;81;21216;-78
2021/05/09 05:46:24;;;;;;;2.47;2.27;;;;;;;7.69;69.04;100318.23;1739242;81;21165;-78
2021/05/09 05:48:52;;;;;;;2.70;2.37;;;;;;;7.77;69.54;100311.27;1766995;81;21025;-77
2021/05/09 05:51:20;;;;;;;2.17;2.08;;;;;;;7.84;69.41;100322.77;1766941;81;21632;-76
2021/05/09 05:53:49;;;;;;;2.40;2.20;;;;;;;7.91;68.65;100336.13;1766876;81;21175;-77
2021/05/09 05:56:17;;;;;;;2.35;2.15;;;;;;;7.96;67.63;100326.90;1766949;81;22801;-78
2021/05/09 05:58:45;;;;;;;2.00;1.90;;;;;;;8.01;67.51;100334.31;1738556;81;21023;-77
2021/05/09 06:01:13;;;;;;;3.35;2.77;;;;;;;8.02;66.25;100322.54;1766632;81;21149;-77
2021/05/09 06:03:41;;;;;;;2.47;2.27;;;;;;;8.06;65.40;100339.30;1766953;81;21177;-76
2021/05/09 06:06:10;;;;;;;1.80;1.62;;;;;;;8.09;65.01;100338.05;1766834;81;21133;-77
2021/05/09 06:08:39;;;;;;;2.40;2.20;;;;;;;8.11;65.14;100331.42;1738602;81;21149;-76
2021/05/09 06:11:07;;;;;;;2.67;2.33;;;;;;;8.15;65.67;100338.53;1767071;81;21149;-77
2021/05/09 06:13:34;;;;;;;2.10;1.85;;;;;;;8.20;65.08;100343.52;1738749;81;21165;-77
2021/05/09 06:16:02;;;;;;;2.80;2.60;;;;;;;8.25;64.00;100326.78;1738552;81;21021;-77
2021/05/09 06:18:30;;;;;;;5.00;1.67;;;;;;;8.33;61.75;100334.59;1738872;81;21176;-78
2021/05/09 06:20:58;;;;;;;1.95;1.85;;;;;;;8.41;62.76;100357.09;1767052;81;22204;-77
2021/05/09 06:23:28;;;;;;;1.85;1.75;;;;;;;8.51;63.18;100339.99;1738613;81;21156;-77
2021/05/09 06:25:56;;;;;;;3.45;1.75;;;;;;;8.56;63.16;100342.84;1767076;81;21175;-77
2021/05/09 06:28:24;;;;;;;2.72;2.33;;;;;;;8.60;61.92;100345.89;1767109;81;21165;-77
2021/05/09 06:30:51;;;;;;;2.58;2.33;;;;;;;8.65;62.27;100341.51;1767078;81;21141;-76
2021/05/09 06:33:19;;;;;;;2.33;2.12;;;;;;;8.70;61.97;100339.50;1738852;81;22189;-77
2021/05/09 06:35:49;;;;;;;2.30;1.80;;;;;;;8.82;61.57;100342.28;1767047;81;21184;-77
2021/05/09 06:38:17;;;;;;;3.27;2.27;;;;;;;8.90;61.16;100337.95;1767317;81;21078;-76
2021/05/09 06:40:45;;;;;;;1.67;1.57;;;;;;;8.96;60.36;100358.54;1767049;81;21577;-77
2021/05/09 06:43:13;;;;;;;2.00;1.90;;;;;;;9.03;58.88;100348.53;1767028;81;21170;-78
2021/05/09 06:45:41;;;;;;;3.25;1.67;;;;;;;9.06;58.32;100350.80;1738598;81;21212;-77
2021/05/09 06:48:11;;;;;;;2.52;2.30;;;;;;;9.08;56.04;100350.85;1739416;81;21116;-78
2021/05/09 06:50:39;;;;;;;1.90;1.80;;;;;;;9.13;56.57;100348.31;1767063;81;21116;-78
2021/05/09 06:53:07;;;;;;;3.22;2.02;;;;;;;9.18;55.01;100360.55;1738652;81;21172;-77
2021/05/09 06:55:35;;;;;;;1.77;1.67;;;;;;;9.22;53.18;100371.64;1738699;81;21128;-78
2021/05/09 06:58:03;;;;;;;1.98;1.65;;;;;;;9.22;53.12;100385.06;1767091;81;21180;-77
2021/05/09 07:00:31;;;;;;;10.13;1.65;;;;;;;9.22;52.12;100392.30;1739224;81;21141;-78
2021/05/09 07:02:59;;;;;;;2.02;1.80;;;;;;;9.21;52.71;100383.41;1767127;81;21716;-77
2021/05/09 07:05:28;;;;;;;3.77;1.70;;;;;;;9.25;53.30;100353.77;1767027;81;21574;-77
2021/05/09 07:07:57;;;;;;;1.80;1.70;;;;;;;9.34;53.61;100361.81;1766985;81;21566;-79
2021/05/09 07:10:26;;;;;;;5.15;1.80;;;;;;;9.42;54.30;100372.75;1767109;81;22203;-77
2021/05/09 07:12:55;;;;;;;2.17;1.70;;;;;;;9.47;53.67;100375.58;1766950;81;21180;-78
2021/05/09 07:15:28;;;;;;;2.95;2.35;;;;;;;9.53;52.64;100367.45;1738722;81;22269;-78
2021/05/09 07:18:02;;;;;;;1.92;1.50;;;;;;;9.57;53.15;100371.32;1766974;81;21189;-78
2021/05/09 07:20:29;;;;;;;1.60;1.50;;;;;;;9.64;51.76;100380.09;1766939;81;21141;-77
2021/05/09 07:22:58;;;;;;;1.50;1.40;;;;;;;9.68;52.04;100392.57;1766952;81;21672;-77
2021/05/09 07:25:26;;;;;;;1.70;1.12;;;;;;;9.69;52.04;100386.13;1766956;81;21137;-78
2021/05/09 07:27:53;;;;;;;2.02;1.55;;;;;;;9.68;52.22;100375.11;1739035;81;21148;-77
2021/05/09 07:30:22;;;;;;;2.22;1.70;;;;;;;9.74;52.90;100369.33;1767088;81;21563;-77
2021/05/09 07:32:50;;;;;;;2.25;2.05;;;;;;;9.79;52.94;100369.47;1738638;81;21184;-78
2021/05/09 07:35:18;;;;;;;1.80;1.62;;;;;;;9.83;53.07;100355.34;1767114;81;22111;-78
2021/05/09 07:37:46;;;;;;;2.20;1.95;;;;;;;9.91;53.14;100358.25;1766888;81;21117;-78
2021/05/09 07:40:14;;;;;;;2.65;2.20;;;;;;;9.97;52.30;100381.01;1767164;81;21594;-78
2021/05/09 07:42:42;;;;;;;2.27;2.08;;;;;;;10.01;51.75;100370.61;1766943;81;21192;-77
2021/05/09 07:45:15;;;;;;;1.92;1.80;;;;;;;10.06;52.24;100370.75;1767044;81;21125;-79
2021/05/09 07:47:41;;;;;;;1.57;1.47;;;;;;;10.13;52.36;100368.77;1766809;81;21269;-78
2021/05/09 07:50:10;;;;;;;4.60;1.87;;;;;;;10.19;50.59;100398.80;1767104;81;21588;-79
2021/05/09 07:52:38;;;;;;;1.50;1.40;;;;;;;10.23;49.79;100369.05;1738649;81;21133;-78
2021/05/09 07:55:07;;;;;;;2.15;1.98;;;;;;;10.27;49.47;100376.13;1767127;81;21038;-78
2021/05/09 07:57:34;;;;;;;2.12;2.02;;;;;;;10.28;49.41;100404.66;1738590;81;21629;-79
2021/05/09 08:00:08;;;;;;;2.62;2.00;;;;;;;10.29;49.57;100389.64;1738840;81;22184;-78
2021/05/09 08:02:37;;;;;;;1.92;1.67;;;;;;;10.29;49.88;100370.83;1766828;81;21023;-78
2021/05/09 08:05:07;;;;;;;1.80;1.70;;;;;;;10.32;50.10;100372.22;1766977;81;21648;-77
2021/05/09 08:07:34;;;;;;;2.10;1.90;;;;;;;10.36;50.46;100360.77;1733720;81;21113;-79
2021/05/09 08:10:04;;;;;;;1.90;1.80;;;;;;;10.45;51.39;100382.23;1753495;81;21563;-78
2021/05/09 08:12:32;;;;;;;2.10;1.90;;;;;;;10.50;50.10;100368.12;1730074;81;21871;-77
2021/05/09 08:15:03;;;;;;;6.17;2.30;;;;;;;10.51;50.58;100371.08;1752680;81;21204;-78
2021/05/09 08:17:31;;;;;;;3.10;1.80;;;;;;;10.54;49.95;100396.18;1729910;81;21205;-78
2021/05/09 08:20:00;;;;;;;1.80;1.70;;;;;;;10.57;50.28;100367.98;1753507;81;21634;-78
2021/05/09 08:22:28;;;;;;;5.08;4.08;;;;;;;10.62;50.62;100363.55;1729992;81;21583;-80
2021/05/09 08:24:56;;;;;;;3.12;2.58;;;;;;;10.69;50.54;100357.54;1729678;81;22148;-75
2021/05/09 08:27:24;;;;;;;2.15;1.95;;;;;;;10.79;51.37;100393.28;1753452;81;21173;-77
2021/05/09 08:29:52;;;;;;;3.17;2.50;;;;;;;10.87;49.68;100395.08;1753485;81;21150;-79
2021/05/09 08:32:20;;;;;;;2.42;2.00;;;;;;;10.91;49.13;100367.17;1729831;81;21246;-78
2021/05/09 08:34:49;;;;;;;2.45;2.22;;;;;;;11.00;49.06;100379.21;1753515;81;21118;-78
2021/05/09 08:37:16;;;;;;;1.90;1.80;;;;;;;11.07;48.99;100381.80;1753480;81;21366;-78
2021/05/09 08:39:44;;;;;;;4.05;2.27;;;;;;;11.09;48.64;100358.95;1730154;81;21398;-77
2021/05/09 08:42:16;;;;;;;2.92;2.52;;;;;;;11.13;49.31;100362.80;1729834;81;21059;-78
2021/05/09 08:44:47;;;;;;;2.30;2.10;;;;;;;11.19;49.41;100363.20;1753664;81;27250;-78
2021/05/09 08:47:20;;;;;;;6.40;2.55;;;;;;;11.24;48.63;100379.47;1753584;81;21169;-78
2021/05/09 08:49:45;;;;;;;6.50;2.08;;;;;;;11.32;48.72;100363.45;1753248;81;22456;-79
2021/05/09 08:52:19;;;;;;;1.87;1.77;;;;;;;11.32;47.29;100337.34;1753595;81;21551;-78
2021/05/09 08:54:48;;;;;;;1.75;1.65;;;;;;;11.34;47.05;100362.70;1730421;81;21075;-79
2021/05/09 08:57:16;;;;;;;1.87;1.77;;;;;;;11.41;47.55;100384.12;1753573;81;21562;-79
2021/05/09 08:59:43;;;;;;;2.47;2.25;;;;;;;11.41;47.17;100351.80;1730306;81;21137;-78
2021/05/09 09:02:11;;;;;;;3.33;2.40;;;;;;;11.45;47.97;100362.39;1753529;81;22576;-79
2021/05/09 09:04:50;;;;;;;2.80;1.72;;;;;;;11.50;47.21;100357.92;1682478;81;21205;-79
2021/05/09 09:07:19;;;;;;;1.55;1.40;;;;;;;11.60;46.83;100354.09;1753400;81;21114;-78
2021/05/09 09:09:49;;;;;;;2.37;1.67;;;;;;;11.71;45.82;100364.50;1729841;81;21069;-79
2021/05/09 09:12:20;;;;;;;2.90;1.90;;;;;;;11.80;45.04;100355.83;1753349;81;21161;-80
2021/05/09 09:15:00;;;;;;;1.72;1.62;;;;;;;11.80;44.53;100396.78;1753604;81;21256;-79
2021/05/09 09:17:28;;;;;;;2.77;1.45;;;;;;;11.80;43.51;100394.08;1753394;81;21576;-79
2021/05/09 09:20:18;;;;;;;1.65;1.55;;;;;;;11.80;42.48;100376.56;1730346;81;21035;-78
2021/05/09 09:22:59;;;;;;;3.52;1.70;;;;;;;11.77;42.90;100350.11;1729627;81;21244;-79
2021/05/09 09:25:33;;;;;;;1.80;1.70;;;;;;;11.80;43.17;100376.04;1753557;81;21599;-79
2021/05/09 09:28:01;;;;;;;1.43;1.33;;;;;;;11.86;42.92;100375.61;1729985;81;21793;-78
2021/05/09 09:30:29;;;;;;;1.52;1.42;;;;;;;11.91;43.10;100347.40;1753480;81;21177;-79
2021/05/09 09:33:14;;;;;;;2.60;1.65;;;;;;;11.95;43.99;100371.98;1755139;81;20951;-79
2021/05/09 09:35:47;;;;;;;1.85;1.60;;;;;;;12.01;42.26;100375.89;1754220;81;21196;-77
2021/05/09 09:38:32;;;;;;;1.55;1.40;;;;;;;12.04;42.61;100375.39;1730055;81;21213;-78
2021/05/09 09:41:16;;;;;;;1.70;1.60;;;;;;;12.07;42.96;100382.20;1753456;81;22319;-77
2021/05/09 09:44:08;;;;;;;2.17;1.98;;;;;;;12.08;42.86;100387.36;1729961;81;21194;-78
2021/05/09 09:46:39;;;;;;;1.80;1.65;;;;;;;12.14;42.58;100409.81;1753825;81;21591;-79
2021/05/09 09:49:27;;;;;;;1.57;1.40;;;;;;;12.18;41.97;100376.72;1750300;81;21654;-78
2021/05/09 09:51:58;;;;;;;1.70;1.60;;;;;;;12.18;41.90;100381.33;1729983;81;21137;-77
2021/05/09 09:54:38;;;;;;;1.90;1.75;;;;;;;12.13;40.78;100418.43;1730013;81;21200;-78
2021/05/09 09:57:09;;;;;;;4.60;1.90;;;;;;;12.12;41.21;100401.98;1753540;81;21276;-78
2021/05/09 09:59:37;;;;;;;2.12;1.55;;;;;;;12.18;42.46;100372.67;1730064;81;21039;-78
2021/05/09 10:02:06;;;;;;;1.85;1.75;;;;;;;12.26;42.57;100397.09;1729978;81;21118;-80
2021/05/09 10:04:34;;;;;;;2.10;1.90;;;;;;;12.29;41.97;100416.83;1729967;81;21149;-79
2021/05/09 10:07:06;;;;;;;1.47;1.37;;;;;;;12.33;42.12;100403.66;1753623;81;22261;-80
2021/05/09 10:09:34;;;;;;;2.50;1.77;;;;;;;12.33;42.46;100382.91;1753556;81;21141;-77
2021/05/09 10:12:01;;;;;;;1.57;1.47;;;;;;;12.38;42.39;100360.59;1729899;81;21042;-79
2021/05/09 10:14:33;;;;;;;2.33;2.12;;;;;;;12.42;42.74;100386.84;1753735;81;21161;-78
2021/05/09 10:17:02;;;;;;;1.77;1.67;;;;;;;12.46;42.80;100377.22;1730063;81;21153;-79
2021/05/09 10:19:30;;;;;;;1.70;1.60;;;;;;;12.49;41.75;100379.94;1706328;81;21395;-78
2021/05/09 10:21:58;;;;;;;1.80;1.70;;;;;;;12.56;41.82;100402.20;1729875;81;21165;-78
2021/05/09 10:24:26;;;;;;;2.17;2.00;;;;;;;12.66;41.82;100387.52;1730437;81;21137;-79
2021/05/09 10:27:10;;;;;;;1.67;1.40;;;;;;;12.78;41.41;100408.48;1730424;81;21176;-78
2021/05/09 10:29:45;;;;;;;1.70;1.60;;;;;;;12.85;41.52;100409.14;1753601;81;21078;-79
2021/05/09 10:32:24;;;;;;;2.00;1.90;;;;;;;12.87;41.08;100411.56;1730073;81;21181;-79
2021/05/09 10:35:00;;;;;;;2.65;1.87;;;;;;;12.92;41.73;100392.75;1753585;81;21164;-81
2021/05/09 10:37:45;;;;;;;1.50;1.40;;;;;;;12.99;41.62;100387.48;1753651;81;20995;-78
2021/05/09 10:40:34;;;;;;;1.67;1.57;;;;;;;13.10;41.76;100399.21;1729903;81;21701;-80
2021/05/09 10:43:08;;;;;;;1.90;1.80;;;;;;;13.06;41.14;100409.70;1729955;81;21200;-81
2021/05/09 10:45:44;;;;;;;1.70;1.20;;;;;;;13.03;40.94;100453.95;1753664;81;20975;-80
2021/05/09 10:48:33;;;;;;;3.25;2.95;;;;;;;12.88;40.61;100407.81;1729913;81;21035;-80
2021/05/09 10:51:07;;;;;;;2.08;1.87;;;;;;;12.83;41.38;100407.20;1729897;81;21169;-81
2021/05/09 10:53:40;;;;;;;3.02;2.17;;;;;;;12.89;41.69;100402.70;1753730;81;21145;-80
2021/05/09 10:56:20;;;;;;;2.02;1.82;;;;;;;12.89;39.45;100421.08;1753587;81;21118;-81
2021/05/09 10:58:50;;;;;;;3.37;2.50;;;;;;;12.93;39.38;100391.69;1730210;81;21956;-79
2021/05/09 11:01:24;;;;;;;1.80;1.70;;;;;;;12.98;39.76;100402.56;1753587;81;21141;-78
2021/05/09 11:03:57;;;;;;;;;;;;;;;13.16;39.27;100392.86;1732199;81;21165;-69
2021/05/09 11:06:31;;;;;;;2.50;1.22;;;;;;;13.33;39.42;100404.98;1753633;81;20220;-70
2021/05/09 11:09:05;;;;;;;1.85;1.27;;;;;;;13.49;39.63;100400.85;1764067;81;26620;-70
2021/05/09 11:11:38;;;;;;;1.80;1.70;;;;;;;13.61;38.90;100414.25;1767115;81;21354;-70
2021/05/09 11:14:11;;;;;;;3.00;1.67;;;;;;;13.64;38.55;100394.81;1767146;81;21165;-70
2021/05/09 11:16:57;;;;;;;1.90;1.80;;;;;;;13.61;38.84;100398.03;1767103;81;21197;-69
2021/05/09 11:19:43;;;;;;;2.33;1.62;;;;;;;13.63;39.63;100411.28;1767013;81;21558;-70
2021/05/09 11:22:11;;;;;;;1.50;1.40;;;;;;;13.60;39.03;100391.52;1767019;81;21184;-71
2021/05/09 11:24:41;;;;;;;1.55;1.45;;;;;;;13.53;38.82;100391.17;1766930;81;22194;-71
2021/05/09 11:27:12;;;;;;;1.82;1.57;;;;;;;13.57;39.09;100400.14;1766913;81;21133;-70
2021/05/09 11:29:41;;;;;;;2.87;1.37;;;;;;;13.60;37.73;100396.92;1766766;81;21101;-66
2021/05/09 11:32:14;;;;;;;2.70;1.32;;;;;;;13.63;38.07;100402.64;1766925;81;21157;-71
2021/05/09 11:34:57;;;;;;;2.40;2.17;;;;;;;13.67;38.14;100385.40;1703794;84;21227;-72
2021/05/09 11:37:35;;;;;;;1.85;1.75;;;;;;;13.80;39.11;100370.95;1846935;76;22546;-72
2021/05/09 11:40:07;;;;;;;2.20;2.00;;;;;;;13.84;38.54;100413.98;1817320;79;21028;-72
2021/05/09 11:42:35;;;;;;;1.50;1.40;;;;;;;13.92;37.22;100405.41;1817228;79;21364;-72
2021/05/09 11:45:04;;;;;;;1.50;1.40;;;;;;;13.98;36.67;100401.70;1817034;79;20987;-71